sensor_id;sensor_type;location;lat;lon;timestamp;P1;durP1;ratioP1;P2;durP2;ratioP2
17384;SDS011;8810;48.680;8.894;2023-02-01T00:02:11;6.70;;;4.07;;
17384;SDS011;8810;48.680;8.894;2023-02-01T00:04:37;7.63;;;4.07;;
17384;SDS011;8810;48.680;8.894;2023-02-01T00:07:04;9.17;;;4.03;;
17384;SDS011;8810;48.680;8.894;2023-02-01T00:09:31;8.23;;;4.33;;
17384;SDS011;8810;48.680;8.894;2023-02-01T00:11:58;8.00;;;4.50;;
17384;SDS011;8810;48.680;8.894;2023-02-01T00:14:28;9.87;;;4.67;;
17384;SDS011;8810;48.680;8.894;2023-02-01T00:16:57;6.40;;;4.10;;
17384;SDS011;8810;48.680;8.894;2023-02-01T00:19:24;7.07;;;3.80;;
17384;SDS011;8810;48.680;8.894;2023-02-01T00:21:51;9.33;;;4.13;;
17384;SDS011;8810;48.680;8.894;2023-02-01T00:24:17;7.93;;;4.77;;
17384;SDS011;8810;48.680;8.894;2023-02-01T00:26:44;7.13;;;3.63;;
17384;SDS011;8810;48.680;8.894;2023-02-01T00:29:12;7.80;;;3.87;;
17384;SDS011;8810;48.680;8.894;2023-02-01T00:31:42;6.03;;;3.50;;
17384;SDS011;8810;48.680;8.894;2023-02-01T00:34:09;6.40;;;3.77;;
17384;SDS011;8810;48.680;8.894;2023-02-01T00:36:38;6.20;;;3.67;;
17384;SDS011;8810;48.680;8.894;2023-02-01T00:39:05;6.30;;;3.53;;
17384;SDS011;8810;48.680;8.894;2023-02-01T00:41:32;7.77;;;3.70;;
17384;SDS011;8810;48.680;8.894;2023-02-01T00:43:59;8.93;;;3.33;;
17384;SDS011;8810;48.680;8.894;2023-02-01T00:46:26;5.27;;;3.20;;
17384;SDS011;8810;48.680;8.894;2023-02-01T00:48:55;5.90;;;3.47;;
17384;SDS011;8810;48.680;8.894;2023-02-01T00:51:23;7.00;;;3.50;;
17384;SDS011;8810;48.680;8.894;2023-02-01T00:53:52;6.40;;;3.27;;
17384;SDS011;8810;48.680;8.894;2023-02-01T00:56:19;8.53;;;3.67;;
17384;SDS011;8810;48.680;8.894;2023-02-01T00:58:46;9.17;;;3.27;;
17384;SDS011;8810;48.680;8.894;2023-02-01T01:01:15;8.00;;;3.23;;
17384;SDS011;8810;48.680;8.894;2023-02-01T01:03:44;6.27;;;3.00;;
17384;SDS011;8810;48.680;8.894;2023-02-01T01:06:15;6.97;;;3.20;;
17384;SDS011;8810;48.680;8.894;2023-02-01T01:08:43;6.37;;;3.10;;
17384;SDS011;8810;48.680;8.894;2023-02-01T01:11:11;5.27;;;2.67;;
17384;SDS011;8810;48.680;8.894;2023-02-01T01:13:39;5.63;;;2.97;;
17384;SDS011;8810;48.680;8.894;2023-02-01T01:16:06;6.73;;;2.80;;
17384;SDS011;8810;48.680;8.894;2023-02-01T01:18:35;4.37;;;2.70;;
17384;SDS011;8810;48.680;8.894;2023-02-01T01:21:03;4.90;;;2.90;;
17384;SDS011;8810;48.680;8.894;2023-02-01T01:23:32;4.33;;;2.43;;
17384;SDS011;8810;48.680;8.894;2023-02-01T01:26:00;5.93;;;2.30;;
17384;SDS011;8810;48.680;8.894;2023-02-01T01:28:27;4.50;;;2.60;;
17384;SDS011;8810;48.680;8.894;2023-02-01T01:30:54;3.73;;;2.20;;
17384;SDS011;8810;48.680;8.894;2023-02-01T01:33:20;3.53;;;2.10;;
17384;SDS011;8810;48.680;8.894;2023-02-01T01:35:47;5.40;;;2.23;;
17384;SDS011;8810;48.680;8.894;2023-02-01T01:38:14;4.93;;;2.30;;
17384;SDS011;8810;48.680;8.894;2023-02-01T01:40:45;3.30;;;2.10;;
17384;SDS011;8810;48.680;8.894;2023-02-01T01:43:15;3.03;;;2.03;;
17384;SDS011;8810;48.680;8.894;2023-02-01T01:45:44;3.83;;;2.10;;
17384;SDS011;8810;48.680;8.894;2023-02-01T01:48:13;3.83;;;2.13;;
17384;SDS011;8810;48.680;8.894;2023-02-01T01:50:44;4.90;;;2.50;;
17384;SDS011;8810;48.680;8.894;2023-02-01T01:53:15;3.60;;;2.27;;
17384;SDS011;8810;48.680;8.894;2023-02-01T01:55:47;4.23;;;2.50;;
17384;SDS011;8810;48.680;8.894;2023-02-01T01:58:17;5.47;;;2.60;;
17384;SDS011;8810;48.680;8.894;2023-02-01T02:00:45;4.23;;;2.70;;
17384;SDS011;8810;48.680;8.894;2023-02-01T02:03:14;3.33;;;2.30;;
17384;SDS011;8810;48.680;8.894;2023-02-01T02:05:44;4.37;;;2.90;;
17384;SDS011;8810;48.680;8.894;2023-02-01T02:08:12;3.87;;;2.40;;
17384;SDS011;8810;48.680;8.894;2023-02-01T02:10:39;5.23;;;2.63;;
17384;SDS011;8810;48.680;8.894;2023-02-01T02:13:25;4.33;;;2.80;;
17384;SDS011;8810;48.680;8.894;2023-02-01T02:15:57;3.77;;;2.30;;
17384;SDS011;8810;48.680;8.894;2023-02-01T02:18:37;4.00;;;2.67;;
17384;SDS011;8810;48.680;8.894;2023-02-01T02:21:12;5.27;;;2.37;;
17384;SDS011;8810;48.680;8.894;2023-02-01T02:33:24;4.27;;;2.40;;
17384;SDS011;8810;48.680;8.894;2023-02-01T02:36:08;4.27;;;2.80;;
17384;SDS011;8810;48.680;8.894;2023-02-01T02:38:41;6.13;;;2.83;;
17384;SDS011;8810;48.680;8.894;2023-02-01T02:41:16;4.60;;;2.90;;
17384;SDS011;8810;48.680;8.894;2023-02-01T02:44:00;4.80;;;2.90;;
17384;SDS011;8810;48.680;8.894;2023-02-01T02:46:53;5.40;;;3.13;;
17384;SDS011;8810;48.680;8.894;2023-02-01T02:49:47;3.90;;;2.70;;
17384;SDS011;8810;48.680;8.894;2023-02-01T02:52:32;3.93;;;2.60;;
17384;SDS011;8810;48.680;8.894;2023-02-01T02:55:19;7.23;;;2.87;;
17384;SDS011;8810;48.680;8.894;2023-02-01T02:57:47;5.57;;;2.77;;
17384;SDS011;8810;48.680;8.894;2023-02-01T03:00:33;5.97;;;2.70;;
17384;SDS011;8810;48.680;8.894;2023-02-01T03:03:18;4.53;;;2.73;;
17384;SDS011;8810;48.680;8.894;2023-02-01T03:06:08;5.53;;;2.67;;
17384;SDS011;8810;48.680;8.894;2023-02-01T03:08:40;4.33;;;2.80;;
17384;SDS011;8810;48.680;8.894;2023-02-01T03:11:10;5.13;;;2.63;;
17384;SDS011;8810;48.680;8.894;2023-02-01T03:13:41;4.40;;;2.40;;
17384;SDS011;8810;48.680;8.894;2023-02-01T03:16:10;4.60;;;2.63;;
17384;SDS011;8810;48.680;8.894;2023-02-01T03:18:42;4.07;;;2.33;;
17384;SDS011;8810;48.680;8.894;2023-02-01T03:21:17;5.13;;;2.80;;
17384;SDS011;8810;48.680;8.894;2023-02-01T03:23:48;3.80;;;2.37;;
17384;SDS011;8810;48.680;8.894;2023-02-01T03:26:17;3.43;;;2.30;;
17384;SDS011;8810;48.680;8.894;2023-02-01T03:28:48;2.70;;;2.00;;
17384;SDS011;8810;48.680;8.894;2023-02-01T03:31:21;3.03;;;2.03;;
17384;SDS011;8810;48.680;8.894;2023-02-01T03:33:49;3.40;;;2.37;;
17384;SDS011;8810;48.680;8.894;2023-02-01T03:36:20;3.57;;;2.17;;
17384;SDS011;8810;48.680;8.894;2023-02-01T03:38:55;3.17;;;1.93;;
17384;SDS011;8810;48.680;8.894;2023-02-01T03:41:33;3.47;;;2.00;;
17384;SDS011;8810;48.680;8.894;2023-02-01T03:44:04;4.07;;;1.83;;
17384;SDS011;8810;48.680;8.894;2023-02-01T03:46:39;2.77;;;1.57;;
17384;SDS011;8810;48.680;8.894;2023-02-01T03:49:09;2.43;;;1.90;;
17384;SDS011;8810;48.680;8.894;2023-02-01T03:51:41;3.27;;;1.80;;
17384;SDS011;8810;48.680;8.894;2023-02-01T03:54:09;2.43;;;1.50;;
17384;SDS011;8810;48.680;8.894;2023-02-01T03:56:40;2.20;;;1.23;;
17384;SDS011;8810;48.680;8.894;2023-02-01T03:59:10;1.03;;;0.90;;
17384;SDS011;8810;48.680;8.894;2023-02-01T04:01:37;2.03;;;1.37;;
17384;SDS011;8810;48.680;8.894;2023-02-01T04:04:04;2.63;;;1.60;;
17384;SDS011;8810;48.680;8.894;2023-02-01T04:06:31;2.00;;;1.50;;
17384;SDS011;8810;48.680;8.894;2023-02-01T04:08:59;2.00;;;1.50;;
17384;SDS011;8810;48.680;8.894;2023-02-01T04:11:26;4.33;;;2.00;;
17384;SDS011;8810;48.680;8.894;2023-02-01T04:13:54;2.40;;;1.40;;
17384;SDS011;8810;48.680;8.894;2023-02-01T04:16:21;2.30;;;1.40;;
17384;SDS011;8810;48.680;8.894;2023-02-01T04:18:47;1.10;;;0.90;;
17384;SDS011;8810;48.680;8.894;2023-02-01T04:21:14;2.13;;;1.17;;
17384;SDS011;8810;48.680;8.894;2023-02-01T04:23:41;3.47;;;1.10;;
17384;SDS011;8810;48.680;8.894;2023-02-01T04:26:09;0.90;;;0.90;;
17384;SDS011;8810;48.680;8.894;2023-02-01T04:28:36;1.23;;;0.97;;
17384;SDS011;8810;48.680;8.894;2023-02-01T04:31:03;2.53;;;1.03;;
17384;SDS011;8810;48.680;8.894;2023-02-01T04:33:30;1.70;;;0.87;;
17384;SDS011;8810;48.680;8.894;2023-02-01T04:35:57;1.17;;;0.87;;
17384;SDS011;8810;48.680;8.894;2023-02-01T04:38:24;1.00;;;0.87;;
17384;SDS011;8810;48.680;8.894;2023-02-01T04:40:51;1.47;;;0.90;;
17384;SDS011;8810;48.680;8.894;2023-02-01T04:43:20;1.73;;;0.90;;
17384;SDS011;8810;48.680;8.894;2023-02-01T04:45:47;1.30;;;1.00;;
17384;SDS011;8810;48.680;8.894;2023-02-01T04:48:15;1.10;;;0.83;;
17384;SDS011;8810;48.680;8.894;2023-02-01T04:50:42;0.93;;;0.77;;
17384;SDS011;8810;48.680;8.894;2023-02-01T04:53:12;1.10;;;0.87;;
17384;SDS011;8810;48.680;8.894;2023-02-01T04:55:39;1.80;;;0.80;;
17384;SDS011;8810;48.680;8.894;2023-02-01T04:58:06;0.83;;;0.80;;
17384;SDS011;8810;48.680;8.894;2023-02-01T05:00:34;0.90;;;0.70;;
17384;SDS011;8810;48.680;8.894;2023-02-01T05:03:01;5.50;;;1.07;;
17384;SDS011;8810;48.680;8.894;2023-02-01T05:05:28;1.20;;;0.80;;
17384;SDS011;8810;48.680;8.894;2023-02-01T05:07:55;1.40;;;0.90;;
17384;SDS011;8810;48.680;8.894;2023-02-01T05:10:22;1.00;;;0.83;;
17384;SDS011;8810;48.680;8.894;2023-02-01T05:12:49;1.27;;;0.83;;
17384;SDS011;8810;48.680;8.894;2023-02-01T05:15:35;1.30;;;0.80;;
17384;SDS011;8810;48.680;8.894;2023-02-01T05:18:02;0.97;;;0.70;;
17384;SDS011;8810;48.680;8.894;2023-02-01T05:20:29;1.17;;;0.80;;
17384;SDS011;8810;48.680;8.894;2023-02-01T05:22:55;1.07;;;0.67;;
17384;SDS011;8810;48.680;8.894;2023-02-01T05:25:22;1.27;;;0.80;;
17384;SDS011;8810;48.680;8.894;2023-02-01T05:27:49;1.77;;;0.90;;
17384;SDS011;8810;48.680;8.894;2023-02-01T05:30:16;2.50;;;1.13;;
17384;SDS011;8810;48.680;8.894;2023-02-01T05:32:44;1.20;;;0.70;;
17384;SDS011;8810;48.680;8.894;2023-02-01T05:35:11;0.70;;;0.57;;
17384;SDS011;8810;48.680;8.894;2023-02-01T05:37:38;1.43;;;0.80;;
17384;SDS011;8810;48.680;8.894;2023-02-01T05:40:05;1.53;;;0.80;;
17384;SDS011;8810;48.680;8.894;2023-02-01T05:42:33;1.27;;;0.87;;
17384;SDS011;8810;48.680;8.894;2023-02-01T05:45:00;1.20;;;0.97;;
17384;SDS011;8810;48.680;8.894;2023-02-01T05:47:27;1.50;;;0.93;;
17384;SDS011;8810;48.680;8.894;2023-02-01T05:49:55;1.83;;;0.93;;
17384;SDS011;8810;48.680;8.894;2023-02-01T05:52:22;3.57;;;1.00;;
17384;SDS011;8810;48.680;8.894;2023-02-01T05:54:49;2.20;;;0.83;;
17384;SDS011;8810;48.680;8.894;2023-02-01T05:57:16;1.20;;;0.97;;
17384;SDS011;8810;48.680;8.894;2023-02-01T05:59:43;2.37;;;1.10;;
17384;SDS011;8810;48.680;8.894;2023-02-01T06:02:10;1.67;;;1.07;;
17384;SDS011;8810;48.680;8.894;2023-02-01T06:04:37;2.13;;;1.20;;
17384;SDS011;8810;48.680;8.894;2023-02-01T06:07:06;4.03;;;1.30;;
17384;SDS011;8810;48.680;8.894;2023-02-01T06:09:34;3.00;;;1.97;;
17384;SDS011;8810;48.680;8.894;2023-02-01T06:12:01;2.93;;;1.40;;
17384;SDS011;8810;48.680;8.894;2023-02-01T06:14:28;3.07;;;1.37;;
17384;SDS011;8810;48.680;8.894;2023-02-01T06:16:54;2.10;;;1.43;;
17384;SDS011;8810;48.680;8.894;2023-02-01T06:19:21;2.93;;;1.50;;
17384;SDS011;8810;48.680;8.894;2023-02-01T06:21:48;6.70;;;3.17;;
17384;SDS011;8810;48.680;8.894;2023-02-01T06:24:17;4.07;;;1.70;;
17384;SDS011;8810;48.680;8.894;2023-02-01T06:26:44;5.07;;;1.63;;
17384;SDS011;8810;48.680;8.894;2023-02-01T06:29:11;3.33;;;1.57;;
17384;SDS011;8810;48.680;8.894;2023-02-01T06:31:38;2.90;;;1.30;;
17384;SDS011;8810;48.680;8.894;2023-02-01T06:34:07;4.00;;;1.90;;
17384;SDS011;8810;48.680;8.894;2023-02-01T06:36:34;5.10;;;1.80;;
17384;SDS011;8810;48.680;8.894;2023-02-01T06:39:01;4.07;;;1.60;;
17384;SDS011;8810;48.680;8.894;2023-02-01T06:41:30;3.47;;;1.40;;
17384;SDS011;8810;48.680;8.894;2023-02-01T06:43:59;2.27;;;1.63;;
17384;SDS011;8810;48.680;8.894;2023-02-01T06:46:26;3.87;;;1.60;;
17384;SDS011;8810;48.680;8.894;2023-02-01T06:48:53;2.73;;;1.50;;
17384;SDS011;8810;48.680;8.894;2023-02-01T06:51:21;3.63;;;1.40;;
17384;SDS011;8810;48.680;8.894;2023-02-01T06:53:50;2.30;;;1.50;;
17384;SDS011;8810;48.680;8.894;2023-02-01T06:56:17;3.93;;;1.60;;
17384;SDS011;8810;48.680;8.894;2023-02-01T06:58:45;1.80;;;1.30;;
17384;SDS011;8810;48.680;8.894;2023-02-01T07:01:12;2.23;;;1.50;;
17384;SDS011;8810;48.680;8.894;2023-02-01T07:03:39;4.23;;;2.53;;
17384;SDS011;8810;48.680;8.894;2023-02-01T07:06:06;2.17;;;1.43;;
17384;SDS011;8810;48.680;8.894;2023-02-01T07:08:34;2.20;;;1.50;;
17384;SDS011;8810;48.680;8.894;2023-02-01T07:11:03;5.40;;;2.17;;
17384;SDS011;8810;48.680;8.894;2023-02-01T07:13:32;3.90;;;2.20;;
17384;SDS011;8810;48.680;8.894;2023-02-01T07:16:01;2.30;;;1.20;;
17384;SDS011;8810;48.680;8.894;2023-02-01T07:18:29;4.37;;;1.50;;
17384;SDS011;8810;48.680;8.894;2023-02-01T07:20:56;3.20;;;1.67;;
17384;SDS011;8810;48.680;8.894;2023-02-01T07:23:23;3.80;;;1.50;;
17384;SDS011;8810;48.680;8.894;2023-02-01T07:25:52;2.57;;;1.37;;
17384;SDS011;8810;48.680;8.894;2023-02-01T07:28:20;2.60;;;1.57;;
17384;SDS011;8810;48.680;8.894;2023-02-01T07:30:47;5.33;;;1.80;;
17384;SDS011;8810;48.680;8.894;2023-02-01T07:33:17;4.20;;;1.70;;
17384;SDS011;8810;48.680;8.894;2023-02-01T07:35:45;5.20;;;1.80;;
17384;SDS011;8810;48.680;8.894;2023-02-01T07:38:12;4.40;;;1.83;;
17384;SDS011;8810;48.680;8.894;2023-02-01T07:40:39;3.53;;;1.63;;
17384;SDS011;8810;48.680;8.894;2023-02-01T07:43:06;4.33;;;1.97;;
17384;SDS011;8810;48.680;8.894;2023-02-01T07:45:33;2.83;;;1.50;;
17384;SDS011;8810;48.680;8.894;2023-02-01T07:48:01;4.73;;;1.87;;
17384;SDS011;8810;48.680;8.894;2023-02-01T07:50:29;3.63;;;1.80;;
17384;SDS011;8810;48.680;8.894;2023-02-01T07:52:58;3.67;;;1.90;;
17384;SDS011;8810;48.680;8.894;2023-02-01T07:55:25;4.57;;;2.03;;
17384;SDS011;8810;48.680;8.894;2023-02-01T07:57:56;4.27;;;2.33;;
17384;SDS011;8810;48.680;8.894;2023-02-01T08:00:23;6.20;;;2.10;;
17384;SDS011;8810;48.680;8.894;2023-02-01T08:03:07;6.60;;;2.00;;
17384;SDS011;8810;48.680;8.894;2023-02-01T08:05:36;5.03;;;1.60;;
17384;SDS011;8810;48.680;8.894;2023-02-01T08:08:03;2.97;;;1.60;;
17384;SDS011;8810;48.680;8.894;2023-02-01T08:10:30;6.43;;;1.77;;
17384;SDS011;8810;48.680;8.894;2023-02-01T08:12:57;3.30;;;1.97;;
17384;SDS011;8810;48.680;8.894;2023-02-01T08:15:25;5.73;;;1.80;;
17384;SDS011;8810;48.680;8.894;2023-02-01T08:17:52;4.23;;;2.13;;
17384;SDS011;8810;48.680;8.894;2023-02-01T08:20:20;5.10;;;1.70;;
17384;SDS011;8810;48.680;8.894;2023-02-01T08:22:49;4.37;;;1.87;;
17384;SDS011;8810;48.680;8.894;2023-02-01T08:25:16;6.33;;;2.13;;
17384;SDS011;8810;48.680;8.894;2023-02-01T08:27:43;6.20;;;1.60;;
17384;SDS011;8810;48.680;8.894;2023-02-01T08:30:11;4.43;;;2.07;;
17384;SDS011;8810;48.680;8.894;2023-02-01T08:32:39;6.57;;;2.00;;
17384;SDS011;8810;48.680;8.894;2023-02-01T08:35:06;5.60;;;2.43;;
17384;SDS011;8810;48.680;8.894;2023-02-01T08:37:34;7.97;;;2.10;;
17384;SDS011;8810;48.680;8.894;2023-02-01T08:40:03;10.10;;;1.87;;
17384;SDS011;8810;48.680;8.894;2023-02-01T08:42:30;8.37;;;1.87;;
17384;SDS011;8810;48.680;8.894;2023-02-01T08:45:14;5.47;;;1.90;;
17384;SDS011;8810;48.680;8.894;2023-02-01T08:47:41;6.73;;;2.17;;
17384;SDS011;8810;48.680;8.894;2023-02-01T08:50:09;6.27;;;1.60;;
17384;SDS011;8810;48.680;8.894;2023-02-01T08:52:36;5.10;;;1.60;;
17384;SDS011;8810;48.680;8.894;2023-02-01T08:55:05;5.87;;;1.93;;
17384;SDS011;8810;48.680;8.894;2023-02-01T08:57:33;5.57;;;1.83;;
17384;SDS011;8810;48.680;8.894;2023-02-01T09:00:00;7.23;;;2.00;;
17384;SDS011;8810;48.680;8.894;2023-02-01T09:02:27;5.20;;;1.67;;
17384;SDS011;8810;48.680;8.894;2023-02-01T09:04:55;4.37;;;2.00;;
17384;SDS011;8810;48.680;8.894;2023-02-01T09:07:22;7.23;;;1.97;;
17384;SDS011;8810;48.680;8.894;2023-02-01T09:09:49;5.77;;;1.50;;
17384;SDS011;8810;48.680;8.894;2023-02-01T09:12:17;9.23;;;2.13;;
17384;SDS011;8810;48.680;8.894;2023-02-01T09:14:44;5.90;;;2.10;;
17384;SDS011;8810;48.680;8.894;2023-02-01T09:17:11;6.53;;;1.60;;
17384;SDS011;8810;48.680;8.894;2023-02-01T09:19:38;7.33;;;1.80;;
17384;SDS011;8810;48.680;8.894;2023-02-01T09:22:05;6.23;;;1.70;;
17384;SDS011;8810;48.680;8.894;2023-02-01T09:24:32;3.57;;;1.50;;
17384;SDS011;8810;48.680;8.894;2023-02-01T09:26:59;7.40;;;1.90;;
17384;SDS011;8810;48.680;8.894;2023-02-01T09:29:28;4.93;;;1.80;;
17384;SDS011;8810;48.680;8.894;2023-02-01T09:31:55;7.60;;;1.87;;
17384;SDS011;8810;48.680;8.894;2023-02-01T09:34:22;9.40;;;1.90;;
17384;SDS011;8810;48.680;8.894;2023-02-01T09:36:49;7.40;;;2.30;;
17384;SDS011;8810;48.680;8.894;2023-02-01T09:39:16;10.60;;;1.80;;
17384;SDS011;8810;48.680;8.894;2023-02-01T09:41:46;10.53;;;2.07;;
17384;SDS011;8810;48.680;8.894;2023-02-01T09:44:24;6.57;;;2.10;;
17384;SDS011;8810;48.680;8.894;2023-02-01T09:47:10;7.43;;;1.70;;
17384;SDS011;8810;48.680;8.894;2023-02-01T09:49:39;6.77;;;1.90;;
17384;SDS011;8810;48.680;8.894;2023-02-01T09:52:15;7.00;;;2.37;;
17384;SDS011;8810;48.680;8.894;2023-02-01T09:54:47;5.37;;;1.70;;
17384;SDS011;8810;48.680;8.894;2023-02-01T09:57:22;5.20;;;2.00;;
17384;SDS011;8810;48.680;8.894;2023-02-01T09:59:56;9.57;;;1.80;;
17384;SDS011;8810;48.680;8.894;2023-02-01T10:02:27;8.53;;;2.00;;
17384;SDS011;8810;48.680;8.894;2023-02-01T10:04:57;6.27;;;2.13;;
17384;SDS011;8810;48.680;8.894;2023-02-01T10:07:27;6.07;;;1.57;;
17384;SDS011;8810;48.680;8.894;2023-02-01T10:10:07;9.37;;;1.83;;
17384;SDS011;8810;48.680;8.894;2023-02-01T10:12:43;6.03;;;1.93;;
17384;SDS011;8810;48.680;8.894;2023-02-01T10:15:32;9.13;;;1.80;;
17384;SDS011;8810;48.680;8.894;2023-02-01T10:18:10;6.23;;;2.13;;
17384;SDS011;8810;48.680;8.894;2023-02-01T10:20:52;7.43;;;1.90;;
17384;SDS011;8810;48.680;8.894;2023-02-01T10:23:35;9.80;;;2.03;;
17384;SDS011;8810;48.680;8.894;2023-02-01T10:26:27;8.70;;;2.30;;
17384;SDS011;8810;48.680;8.894;2023-02-01T10:28:59;2.47;;;1.57;;
17384;SDS011;8810;48.680;8.894;2023-02-01T10:31:30;9.07;;;1.57;;
17384;SDS011;8810;48.680;8.894;2023-02-01T10:34:00;7.23;;;1.53;;
17384;SDS011;8810;48.680;8.894;2023-02-01T10:36:39;13.30;;;1.77;;
17384;SDS011;8810;48.680;8.894;2023-02-01T10:39:08;12.37;;;1.93;;
17384;SDS011;8810;48.680;8.894;2023-02-01T10:41:39;9.03;;;2.10;;
17384;SDS011;8810;48.680;8.894;2023-02-01T10:44:10;8.90;;;1.83;;
17384;SDS011;8810;48.680;8.894;2023-02-01T10:46:40;6.40;;;2.03;;
17384;SDS011;8810;48.680;8.894;2023-02-01T10:49:08;4.37;;;1.73;;
17384;SDS011;8810;48.680;8.894;2023-02-01T10:51:44;8.23;;;1.93;;
17384;SDS011;8810;48.680;8.894;2023-02-01T10:54:17;8.93;;;1.60;;
17384;SDS011;8810;48.680;8.894;2023-02-01T10:56:46;9.30;;;1.53;;
17384;SDS011;8810;48.680;8.894;2023-02-01T10:59:15;13.20;;;1.87;;
17384;SDS011;8810;48.680;8.894;2023-02-01T11:01:45;8.10;;;2.07;;
17384;SDS011;8810;48.680;8.894;2023-02-01T11:04:13;10.10;;;1.90;;
17384;SDS011;8810;48.680;8.894;2023-02-01T11:06:42;10.70;;;1.90;;
17384;SDS011;8810;48.680;8.894;2023-02-01T11:09:14;9.77;;;1.90;;
17384;SDS011;8810;48.680;8.894;2023-02-01T11:11:56;10.80;;;2.03;;
17384;SDS011;8810;48.680;8.894;2023-02-01T11:14:35;8.60;;;2.20;;
17384;SDS011;8810;48.680;8.894;2023-02-01T11:19:58;8.27;;;1.73;;
17384;SDS011;8810;48.680;8.894;2023-02-01T11:22:27;10.03;;;1.80;;
17384;SDS011;8810;48.680;8.894;2023-02-01T11:24:55;13.73;;;2.17;;
17384;SDS011;8810;48.680;8.894;2023-02-01T11:27:23;7.90;;;1.60;;
17384;SDS011;8810;48.680;8.894;2023-02-01T11:29:51;9.10;;;1.93;;
17384;SDS011;8810;48.680;8.894;2023-02-01T11:32:21;11.93;;;1.67;;
17384;SDS011;8810;48.680;8.894;2023-02-01T11:34:52;6.20;;;2.10;;
17384;SDS011;8810;48.680;8.894;2023-02-01T11:37:24;10.60;;;2.03;;
17384;SDS011;8810;48.680;8.894;2023-02-01T11:39:54;9.77;;;1.63;;
17384;SDS011;8810;48.680;8.894;2023-02-01T11:42:22;7.87;;;1.80;;
17384;SDS011;8810;48.680;8.894;2023-02-01T11:44:49;9.77;;;2.07;;
17384;SDS011;8810;48.680;8.894;2023-02-01T11:47:24;9.40;;;1.43;;
17384;SDS011;8810;48.680;8.894;2023-02-01T11:49:54;5.33;;;1.33;;
17384;SDS011;8810;48.680;8.894;2023-02-01T11:52:29;8.87;;;1.83;;
17384;SDS011;8810;48.680;8.894;2023-02-01T11:55:15;10.73;;;1.97;;
17384;SDS011;8810;48.680;8.894;2023-02-01T11:57:57;8.20;;;1.40;;
17384;SDS011;8810;48.680;8.894;2023-02-01T12:00:41;7.17;;;1.80;;
17384;SDS011;8810;48.680;8.894;2023-02-01T12:03:24;9.77;;;2.10;;
17384;SDS011;8810;48.680;8.894;2023-02-01T12:06:16;11.07;;;1.63;;
17384;SDS011;8810;48.680;8.894;2023-02-01T12:09:03;5.50;;;1.43;;
17384;SDS011;8810;48.680;8.894;2023-02-01T12:11:51;10.23;;;1.50;;
17384;SDS011;8810;48.680;8.894;2023-02-01T12:14:28;4.73;;;1.40;;
17384;SDS011;8810;48.680;8.894;2023-02-01T12:17:11;11.50;;;1.73;;
17384;SDS011;8810;48.680;8.894;2023-02-01T12:19:59;10.57;;;1.70;;
17384;SDS011;8810;48.680;8.894;2023-02-01T12:22:41;7.00;;;1.23;;
17384;SDS011;8810;48.680;8.894;2023-02-01T12:25:29;5.90;;;1.70;;
17384;SDS011;8810;48.680;8.894;2023-02-01T12:28:07;12.40;;;1.80;;
17384;SDS011;8810;48.680;8.894;2023-02-01T12:34:00;12.43;;;1.60;;
17384;SDS011;8810;48.680;8.894;2023-02-01T12:36:41;9.63;;;1.57;;
17384;SDS011;8810;48.680;8.894;2023-02-01T12:39:16;7.27;;;2.03;;
17384;SDS011;8810;48.680;8.894;2023-02-01T12:41:54;6.63;;;1.50;;
17384;SDS011;8810;48.680;8.894;2023-02-01T12:44:31;7.60;;;1.67;;
17384;SDS011;8810;48.680;8.894;2023-02-01T12:47:04;3.77;;;1.40;;
17384;SDS011;8810;48.680;8.894;2023-02-01T12:49:44;7.10;;;1.90;;
17384;SDS011;8810;48.680;8.894;2023-02-01T12:52:16;6.43;;;1.80;;
17384;SDS011;8810;48.680;8.894;2023-02-01T12:54:50;6.47;;;1.70;;
17384;SDS011;8810;48.680;8.894;2023-02-01T12:57:23;10.47;;;2.07;;
17384;SDS011;8810;48.680;8.894;2023-02-01T12:59:54;4.67;;;1.37;;
17384;SDS011;8810;48.680;8.894;2023-02-01T13:02:28;11.77;;;1.90;;
17384;SDS011;8810;48.680;8.894;2023-02-01T13:05:02;9.03;;;1.40;;
17384;SDS011;8810;48.680;8.894;2023-02-01T13:07:39;5.93;;;1.50;;
17384;SDS011;8810;48.680;8.894;2023-02-01T13:10:13;6.63;;;1.30;;
17384;SDS011;8810;48.680;8.894;2023-02-01T13:12:44;7.47;;;1.60;;
17384;SDS011;8810;48.680;8.894;2023-02-01T13:15:17;3.93;;;1.50;;
17384;SDS011;8810;48.680;8.894;2023-02-01T13:17:49;8.47;;;1.60;;
17384;SDS011;8810;48.680;8.894;2023-02-01T13:20:21;6.67;;;1.80;;
17384;SDS011;8810;48.680;8.894;2023-02-01T13:22:53;5.47;;;1.17;;
17384;SDS011;8810;48.680;8.894;2023-02-01T13:25:28;7.47;;;1.63;;
17384;SDS011;8810;48.680;8.894;2023-02-01T13:28:02;5.10;;;1.50;;
17384;SDS011;8810;48.680;8.894;2023-02-01T13:30:38;7.67;;;1.57;;
17384;SDS011;8810;48.680;8.894;2023-02-01T13:33:25;7.63;;;1.93;;
17384;SDS011;8810;48.680;8.894;2023-02-01T13:36:22;7.10;;;1.90;;
17384;SDS011;8810;48.680;8.894;2023-02-01T13:39:21;6.47;;;1.70;;
17384;SDS011;8810;48.680;8.894;2023-02-01T13:42:04;4.40;;;1.30;;
17384;SDS011;8810;48.680;8.894;2023-02-01T13:44:42;6.40;;;1.60;;
17384;SDS011;8810;48.680;8.894;2023-02-01T13:47:15;5.77;;;1.47;;
17384;SDS011;8810;48.680;8.894;2023-02-01T13:49:49;5.83;;;1.20;;
17384;SDS011;8810;48.680;8.894;2023-02-01T13:52:22;7.40;;;1.70;;
17384;SDS011;8810;48.680;8.894;2023-02-01T13:55:00;9.97;;;1.93;;
17384;SDS011;8810;48.680;8.894;2023-02-01T13:57:41;11.27;;;1.73;;
17384;SDS011;8810;48.680;8.894;2023-02-01T14:00:22;8.17;;;2.47;;
17384;SDS011;8810;48.680;8.894;2023-02-01T14:09:05;6.57;;;1.50;;
17384;SDS011;8810;48.680;8.894;2023-02-01T14:11:45;6.07;;;1.60;;
17384;SDS011;8810;48.680;8.894;2023-02-01T14:23:09;9.83;;;2.00;;
17384;SDS011;8810;48.680;8.894;2023-02-01T14:25:40;7.70;;;1.90;;
17384;SDS011;8810;48.680;8.894;2023-02-01T14:28:11;9.57;;;1.83;;
17384;SDS011;8810;48.680;8.894;2023-02-01T14:30:48;6.93;;;1.60;;
17384;SDS011;8810;48.680;8.894;2023-02-01T14:33:20;8.37;;;2.23;;
17384;SDS011;8810;48.680;8.894;2023-02-01T14:38:37;8.17;;;1.97;;
17384;SDS011;8810;48.680;8.894;2023-02-01T14:41:25;8.23;;;2.60;;
17384;SDS011;8810;48.680;8.894;2023-02-01T14:44:14;6.73;;;2.23;;
17384;SDS011;8810;48.680;8.894;2023-02-01T14:47:06;12.53;;;2.33;;
17384;SDS011;8810;48.680;8.894;2023-02-01T14:50:10;11.40;;;1.80;;
17384;SDS011;8810;48.680;8.894;2023-02-01T14:52:44;9.87;;;1.83;;
17384;SDS011;8810;48.680;8.894;2023-02-01T14:55:14;8.53;;;2.07;;
17384;SDS011;8810;48.680;8.894;2023-02-01T14:57:45;11.13;;;2.30;;
17384;SDS011;8810;48.680;8.894;2023-02-01T15:00:19;7.53;;;1.80;;
17384;SDS011;8810;48.680;8.894;2023-02-01T15:02:50;7.77;;;1.87;;
17384;SDS011;8810;48.680;8.894;2023-02-01T15:05:23;10.27;;;2.20;;
17384;SDS011;8810;48.680;8.894;2023-02-01T15:08:00;6.53;;;1.70;;
17384;SDS011;8810;48.680;8.894;2023-02-01T15:10:32;7.50;;;1.90;;
17384;SDS011;8810;48.680;8.894;2023-02-01T15:13:07;11.63;;;2.23;;
17384;SDS011;8810;48.680;8.894;2023-02-01T15:15:44;10.47;;;1.87;;
17384;SDS011;8810;48.680;8.894;2023-02-01T15:18:26;8.60;;;2.27;;
17384;SDS011;8810;48.680;8.894;2023-02-01T15:20:55;12.77;;;2.27;;
17384;SDS011;8810;48.680;8.894;2023-02-01T15:23:24;10.90;;;1.73;;
17384;SDS011;8810;48.680;8.894;2023-02-01T15:25:51;5.93;;;2.20;;
17384;SDS011;8810;48.680;8.894;2023-02-01T15:28:26;7.60;;;1.80;;
17384;SDS011;8810;48.680;8.894;2023-02-01T15:30:56;8.37;;;1.97;;
17384;SDS011;8810;48.680;8.894;2023-02-01T15:33:27;7.30;;;2.23;;
17384;SDS011;8810;48.680;8.894;2023-02-01T15:35:55;10.10;;;1.90;;
17384;SDS011;8810;48.680;8.894;2023-02-01T15:38:36;9.17;;;1.97;;
17384;SDS011;8810;48.680;8.894;2023-02-01T15:41:09;7.87;;;1.70;;
17384;SDS011;8810;48.680;8.894;2023-02-01T15:43:39;8.73;;;2.10;;
17384;SDS011;8810;48.680;8.894;2023-02-01T15:46:09;7.03;;;2.47;;
17384;SDS011;8810;48.680;8.894;2023-02-01T15:48:40;9.37;;;2.50;;
17384;SDS011;8810;48.680;8.894;2023-02-01T15:51:17;9.27;;;1.50;;
17384;SDS011;8810;48.680;8.894;2023-02-01T15:53:46;7.50;;;1.93;;
17384;SDS011;8810;48.680;8.894;2023-02-01T15:56:16;10.40;;;3.00;;
17384;SDS011;8810;48.680;8.894;2023-02-01T15:58:50;18.77;;;5.33;;
17384;SDS011;8810;48.680;8.894;2023-02-01T16:01:19;8.10;;;2.40;;